sensor_id;sensor_type;location;lat;lon;timestamp;pressure;altitude;pressure_sealevel;temperature
12875;BMP180;6505;51.114;13.128;2023-06-05T00:00:03;100016.00;;;20.20
12875;BMP180;6505;51.114;13.128;2023-06-05T00:02:38;100015.00;;;20.10
12875;BMP180;6505;51.114;13.128;2023-06-05T00:05:07;100018.00;;;20.10
12875;BMP180;6505;51.114;13.128;2023-06-05T00:07:36;100020.00;;;20.10
12875;BMP180;6505;51.114;13.128;2023-06-05T00:10:07;100021.00;;;20.10
12875;BMP180;6505;51.114;13.128;2023-06-05T00:12:36;100021.00;;;20.10
12875;BMP180;6505;51.114;13.128;2023-06-05T00:15:07;100020.00;;;20.00
12875;BMP180;6505;51.114;13.128;2023-06-05T00:17:35;100018.00;;;20.00
12875;BMP180;6505;51.114;13.128;2023-06-05T00:20:04;100014.00;;;19.90
12875;BMP180;6505;51.114;13.128;2023-06-05T00:22:37;100015.00;;;19.90
12875;BMP180;6505;51.114;13.128;2023-06-05T00:25:07;100013.00;;;19.90
12875;BMP180;6505;51.114;13.128;2023-06-05T00:27:35;100010.00;;;19.90
12875;BMP180;6505;51.114;13.128;2023-06-05T00:30:06;100008.00;;;19.80
12875;BMP180;6505;51.114;13.128;2023-06-05T00:32:35;100018.00;;;19.80
12875;BMP180;6505;51.114;13.128;2023-06-05T00:35:05;100006.00;;;19.70
12875;BMP180;6505;51.114;13.128;2023-06-05T00:37:33;100005.00;;;19.70
12875;BMP180;6505;51.114;13.128;2023-06-05T00:40:01;100013.00;;;19.70
12875;BMP180;6505;51.114;13.128;2023-06-05T00:42:29;99988.00;;;19.70
12875;BMP180;6505;51.114;13.128;2023-06-05T00:44:57;100007.00;;;19.60
12875;BMP180;6505;51.114;13.128;2023-06-05T00:47:27;100003.00;;;19.60
12875;BMP180;6505;51.114;13.128;2023-06-05T00:49:55;100005.00;;;19.60
12875;BMP180;6505;51.114;13.128;2023-06-05T00:52:25;100004.00;;;19.50
12875;BMP180;6505;51.114;13.128;2023-06-05T00:54:54;100001.00;;;19.50
12875;BMP180;6505;51.114;13.128;2023-06-05T00:57:22;99998.00;;;19.40
12875;BMP180;6505;51.114;13.128;2023-06-05T00:59:51;100001.00;;;19.40
12875;BMP180;6505;51.114;13.128;2023-06-05T01:02:20;100003.00;;;19.40
12875;BMP180;6505;51.114;13.128;2023-06-05T01:04:49;100001.00;;;19.30
12875;BMP180;6505;51.114;13.128;2023-06-05T01:07:18;99998.00;;;19.30
12875;BMP180;6505;51.114;13.128;2023-06-05T01:09:48;99998.00;;;19.30
12875;BMP180;6505;51.114;13.128;2023-06-05T01:12:26;99993.00;;;19.20
12875;BMP180;6505;51.114;13.128;2023-06-05T01:14:58;99997.00;;;19.20
12875;BMP180;6505;51.114;13.128;2023-06-05T01:17:27;99990.00;;;19.20
12875;BMP180;6505;51.114;13.128;2023-06-05T01:19:58;99998.00;;;19.20
12875;BMP180;6505;51.114;13.128;2023-06-05T01:22:27;99998.00;;;19.10
12875;BMP180;6505;51.114;13.128;2023-06-05T01:24:56;100010.00;;;19.10
12875;BMP180;6505;51.114;13.128;2023-06-05T01:27:32;99997.00;;;19.00
12875;BMP180;6505;51.114;13.128;2023-06-05T01:30:08;100000.00;;;19.00
12875;BMP180;6505;51.114;13.128;2023-06-05T01:32:43;99995.00;;;19.00
12875;BMP180;6505;51.114;13.128;2023-06-05T01:35:15;99987.00;;;19.00
12875;BMP180;6505;51.114;13.128;2023-06-05T01:37:47;99986.00;;;18.90
12875;BMP180;6505;51.114;13.128;2023-06-05T01:40:21;99978.00;;;18.90
12875;BMP180;6505;51.114;13.128;2023-06-05T01:42:52;99982.00;;;18.90
12875;BMP180;6505;51.114;13.128;2023-06-05T01:45:21;99982.00;;;18.80
12875;BMP180;6505;51.114;13.128;2023-06-05T01:47:50;99985.00;;;18.80
12875;BMP180;6505;51.114;13.128;2023-06-05T01:50:19;99982.00;;;18.80
12875;BMP180;6505;51.114;13.128;2023-06-05T01:52:47;99980.00;;;18.80
12875;BMP180;6505;51.114;13.128;2023-06-05T01:55:20;99985.00;;;18.70
12875;BMP180;6505;51.114;13.128;2023-06-05T01:57:51;99979.00;;;18.70
12875;BMP180;6505;51.114;13.128;2023-06-05T02:00:19;99984.00;;;18.70
12875;BMP180;6505;51.114;13.128;2023-06-05T02:02:48;99986.00;;;18.70
12875;BMP180;6505;51.114;13.128;2023-06-05T02:05:17;99979.00;;;18.60
12875;BMP180;6505;51.114;13.128;2023-06-05T02:07:48;99985.00;;;18.60
12875;BMP180;6505;51.114;13.128;2023-06-05T02:10:22;99978.00;;;18.60
12875;BMP180;6505;51.114;13.128;2023-06-05T02:12:51;99979.00;;;18.60
12875;BMP180;6505;51.114;13.128;2023-06-05T02:15:19;99972.00;;;18.50
12875;BMP180;6505;51.114;13.128;2023-06-05T02:17:47;99971.00;;;18.50
12875;BMP180;6505;51.114;13.128;2023-06-05T02:20:24;99969.00;;;18.50
12875;BMP180;6505;51.114;13.128;2023-06-05T02:22:53;99968.00;;;18.50
12875;BMP180;6505;51.114;13.128;2023-06-05T02:25:23;99968.00;;;18.40
12875;BMP180;6505;51.114;13.128;2023-06-05T02:27:53;99964.00;;;18.40
12875;BMP180;6505;51.114;13.128;2023-06-05T02:30:21;99970.00;;;18.40
12875;BMP180;6505;51.114;13.128;2023-06-05T02:32:51;99966.00;;;18.40
12875;BMP180;6505;51.114;13.128;2023-06-05T02:35:23;99963.00;;;18.40
12875;BMP180;6505;51.114;13.128;2023-06-05T02:37:52;99967.00;;;18.30
12875;BMP180;6505;51.114;13.128;2023-06-05T02:40:20;99957.00;;;18.30
12875;BMP180;6505;51.114;13.128;2023-06-05T02:42:50;99968.00;;;18.30
12875;BMP180;6505;51.114;13.128;2023-06-05T02:45:18;99973.00;;;18.30
12875;BMP180;6505;51.114;13.128;2023-06-05T02:47:48;99974.00;;;18.30
12875;BMP180;6505;51.114;13.128;2023-06-05T02:50:16;99983.00;;;18.20
12875;BMP180;6505;51.114;13.128;2023-06-05T02:52:49;99986.00;;;18.20
12875;BMP180;6505;51.114;13.128;2023-06-05T02:55:24;99980.00;;;18.20
12875;BMP180;6505;51.114;13.128;2023-06-05T02:58:00;99972.00;;;18.10
12875;BMP180;6505;51.114;13.128;2023-06-05T03:00:40;99982.00;;;18.10
12875;BMP180;6505;51.114;13.128;2023-06-05T03:03:09;99971.00;;;18.10
12875;BMP180;6505;51.114;13.128;2023-06-05T03:05:39;99977.00;;;18.10
12875;BMP180;6505;51.114;13.128;2023-06-05T03:08:11;99977.00;;;18.10
12875;BMP180;6505;51.114;13.128;2023-06-05T03:10:39;99972.00;;;18.10
12875;BMP180;6505;51.114;13.128;2023-06-05T03:13:10;99976.00;;;18.00
12875;BMP180;6505;51.114;13.128;2023-06-05T03:15:38;99977.00;;;18.00
12875;BMP180;6505;51.114;13.128;2023-06-05T03:18:11;99975.00;;;18.00
12875;BMP180;6505;51.114;13.128;2023-06-05T03:20:39;99971.00;;;18.00
12875;BMP180;6505;51.114;13.128;2023-06-05T03:23:08;99966.00;;;18.00
12875;BMP180;6505;51.114;13.128;2023-06-05T03:25:37;99975.00;;;18.00
12875;BMP180;6505;51.114;13.128;2023-06-05T03:28:05;99973.00;;;18.00
12875;BMP180;6505;51.114;13.128;2023-06-05T03:30:36;99970.00;;;17.90
12875;BMP180;6505;51.114;13.128;2023-06-05T03:33:05;99974.00;;;17.90
12875;BMP180;6505;51.114;13.128;2023-06-05T03:35:34;99973.00;;;17.90
12875;BMP180;6505;51.114;13.128;2023-06-05T03:38:05;99972.00;;;17.90
12875;BMP180;6505;51.114;13.128;2023-06-05T03:40:33;99971.00;;;17.90
12875;BMP180;6505;51.114;13.128;2023-06-05T03:43:01;99969.00;;;17.90
12875;BMP180;6505;51.114;13.128;2023-06-05T03:45:32;99972.00;;;17.90
12875;BMP180;6505;51.114;13.128;2023-06-05T03:48:03;99969.00;;;17.90
12875;BMP180;6505;51.114;13.128;2023-06-05T03:50:36;99970.00;;;17.90
12875;BMP180;6505;51.114;13.128;2023-06-05T03:53:06;99973.00;;;17.90
12875;BMP180;6505;51.114;13.128;2023-06-05T03:55:37;99968.00;;;17.90
12875;BMP180;6505;51.114;13.128;2023-06-05T03:58:14;99968.00;;;17.90
12875;BMP180;6505;51.114;13.128;2023-06-05T04:00:47;99973.00;;;17.90
12875;BMP180;6505;51.114;13.128;2023-06-05T04:03:18;99976.00;;;17.90
12875;BMP180;6505;51.114;13.128;2023-06-05T04:05:50;99973.00;;;17.90
12875;BMP180;6505;51.114;13.128;2023-06-05T04:08:19;99969.00;;;17.90
12875;BMP180;6505;51.114;13.128;2023-06-05T04:10:47;99972.00;;;17.90
12875;BMP180;6505;51.114;13.128;2023-06-05T04:13:16;99973.00;;;17.90
12875;BMP180;6505;51.114;13.128;2023-06-05T04:15:45;99975.00;;;17.90
12875;BMP180;6505;51.114;13.128;2023-06-05T04:18:15;99984.00;;;17.90
12875;BMP180;6505;51.114;13.128;2023-06-05T04:20:47;99975.00;;;17.90
12875;BMP180;6505;51.114;13.128;2023-06-05T04:23:16;99968.00;;;17.90
12875;BMP180;6505;51.114;13.128;2023-06-05T04:25:44;99969.00;;;17.90
12875;BMP180;6505;51.114;13.128;2023-06-05T04:28:16;99972.00;;;17.90
12875;BMP180;6505;51.114;13.128;2023-06-05T04:30:44;99969.00;;;17.90
12875;BMP180;6505;51.114;13.128;2023-06-05T04:33:16;99968.00;;;17.90
12875;BMP180;6505;51.114;13.128;2023-06-05T04:35:47;99969.00;;;17.90
12875;BMP180;6505;51.114;13.128;2023-06-05T04:38:15;99974.00;;;17.90
12875;BMP180;6505;51.114;13.128;2023-06-05T04:40:48;99972.00;;;18.00
12875;BMP180;6505;51.114;13.128;2023-06-05T04:43:17;99973.00;;;18.00
12875;BMP180;6505;51.114;13.128;2023-06-05T04:45:45;99971.00;;;18.00
12875;BMP180;6505;51.114;13.128;2023-06-05T04:48:15;99967.00;;;18.10
12875;BMP180;6505;51.114;13.128;2023-06-05T04:50:43;99968.00;;;18.10
12875;BMP180;6505;51.114;13.128;2023-06-05T04:53:13;99971.00;;;18.10
12875;BMP180;6505;51.114;13.128;2023-06-05T04:55:43;99975.00;;;18.20
12875;BMP180;6505;51.114;13.128;2023-06-05T04:58:13;99970.00;;;18.20
12875;BMP180;6505;51.114;13.128;2023-06-05T05:00:43;99969.00;;;18.20
12875;BMP180;6505;51.114;13.128;2023-06-05T05:03:12;99961.00;;;18.30
12875;BMP180;6505;51.114;13.128;2023-06-05T05:05:41;99966.00;;;18.30
12875;BMP180;6505;51.114;13.128;2023-06-05T05:08:09;99970.00;;;18.40
12875;BMP180;6505;51.114;13.128;2023-06-05T05:10:38;99962.00;;;18.40
12875;BMP180;6505;51.114;13.128;2023-06-05T05:13:07;99962.00;;;18.40
12875;BMP180;6505;51.114;13.128;2023-06-05T05:15:36;99960.00;;;18.50
12875;BMP180;6505;51.114;13.128;2023-06-05T05:18:04;99959.00;;;18.50
12875;BMP180;6505;51.114;13.128;2023-06-05T05:20:33;99966.00;;;18.60
12875;BMP180;6505;51.114;13.128;2023-06-05T05:23:03;99975.00;;;18.70
12875;BMP180;6505;51.114;13.128;2023-06-05T05:25:39;99970.00;;;18.70
12875;BMP180;6505;51.114;13.128;2023-06-05T05:28:07;99964.00;;;18.80
12875;BMP180;6505;51.114;13.128;2023-06-05T05:30:36;99968.00;;;18.80
12875;BMP180;6505;51.114;13.128;2023-06-05T05:33:04;99971.00;;;18.80
12875;BMP180;6505;51.114;13.128;2023-06-05T05:35:33;99968.00;;;18.90
12875;BMP180;6505;51.114;13.128;2023-06-05T05:38:01;99969.00;;;18.90
12875;BMP180;6505;51.114;13.128;2023-06-05T05:40:29;99973.00;;;19.00
12875;BMP180;6505;51.114;13.128;2023-06-05T05:42:58;99978.00;;;19.00
12875;BMP180;6505;51.114;13.128;2023-06-05T05:45:26;99973.00;;;19.00
12875;BMP180;6505;51.114;13.128;2023-06-05T05:47:54;99976.00;;;19.10
12875;BMP180;6505;51.114;13.128;2023-06-05T05:50:22;99973.00;;;19.10
12875;BMP180;6505;51.114;13.128;2023-06-05T05:52:50;99979.00;;;19.20
12875;BMP180;6505;51.114;13.128;2023-06-05T05:55:20;99987.00;;;19.30
12875;BMP180;6505;51.114;13.128;2023-06-05T05:57:47;99987.00;;;19.40
12875;BMP180;6505;51.114;13.128;2023-06-05T06:00:18;99988.00;;;19.50
12875;BMP180;6505;51.114;13.128;2023-06-05T06:02:47;99980.00;;;19.60
12875;BMP180;6505;51.114;13.128;2023-06-05T06:05:15;99985.00;;;19.70
12875;BMP180;6505;51.114;13.128;2023-06-05T06:07:44;99986.00;;;19.90
12875;BMP180;6505;51.114;13.128;2023-06-05T06:10:12;99986.00;;;20.00
12875;BMP180;6505;51.114;13.128;2023-06-05T06:12:40;99988.00;;;20.20
12875;BMP180;6505;51.114;13.128;2023-06-05T06:15:09;99980.00;;;20.40
12875;BMP180;6505;51.114;13.128;2023-06-05T06:17:39;99984.00;;;20.60
12875;BMP180;6505;51.114;13.128;2023-06-05T06:20:08;99985.00;;;20.80
12875;BMP180;6505;51.114;13.128;2023-06-05T06:22:40;99979.00;;;21.00
12875;BMP180;6505;51.114;13.128;2023-06-05T06:25:10;99983.00;;;21.20
12875;BMP180;6505;51.114;13.128;2023-06-05T06:27:38;99973.00;;;21.40
12875;BMP180;6505;51.114;13.128;2023-06-05T06:30:07;99979.00;;;21.70
12875;BMP180;6505;51.114;13.128;2023-06-05T06:32:36;99972.00;;;21.90
12875;BMP180;6505;51.114;13.128;2023-06-05T06:35:07;99972.00;;;22.10
12875;BMP180;6505;51.114;13.128;2023-06-05T06:37:36;99972.00;;;22.30
12875;BMP180;6505;51.114;13.128;2023-06-05T06:40:06;99970.00;;;22.50
12875;BMP180;6505;51.114;13.128;2023-06-05T06:42:36;99980.00;;;22.80
12875;BMP180;6505;51.114;13.128;2023-06-05T06:45:14;99975.00;;;23.00
12875;BMP180;6505;51.114;13.128;2023-06-05T06:47:42;99986.00;;;23.20
12875;BMP180;6505;51.114;13.128;2023-06-05T06:50:23;99978.00;;;23.40
12875;BMP180;6505;51.114;13.128;2023-06-05T06:52:51;99980.00;;;23.60
12875;BMP180;6505;51.114;13.128;2023-06-05T06:55:19;99969.00;;;23.80
12875;BMP180;6505;51.114;13.128;2023-06-05T06:57:48;99976.00;;;24.00
12875;BMP180;6505;51.114;13.128;2023-06-05T07:00:17;99977.00;;;24.20
12875;BMP180;6505;51.114;13.128;2023-06-05T07:02:47;99984.00;;;24.40
12875;BMP180;6505;51.114;13.128;2023-06-05T07:05:15;99971.00;;;24.60
12875;BMP180;6505;51.114;13.128;2023-06-05T07:07:46;99974.00;;;24.80
12875;BMP180;6505;51.114;13.128;2023-06-05T07:10:14;99979.00;;;25.00
12875;BMP180;6505;51.114;13.128;2023-06-05T07:12:42;99976.00;;;25.20
12875;BMP180;6505;51.114;13.128;2023-06-05T07:15:10;99978.00;;;25.40
12875;BMP180;6505;51.114;13.128;2023-06-05T07:17:38;99985.00;;;25.60
12875;BMP180;6505;51.114;13.128;2023-06-05T07:20:07;99979.00;;;25.80
12875;BMP180;6505;51.114;13.128;2023-06-05T07:22:36;99981.00;;;25.90
12875;BMP180;6505;51.114;13.128;2023-06-05T07:25:07;99984.00;;;26.00
12875;BMP180;6505;51.114;13.128;2023-06-05T07:27:36;99978.00;;;26.10
12875;BMP180;6505;51.114;13.128;2023-06-05T07:30:05;99983.00;;;26.20
12875;BMP180;6505;51.114;13.128;2023-06-05T07:32:34;99978.00;;;26.30
12875;BMP180;6505;51.114;13.128;2023-06-05T07:35:02;99972.00;;;26.40
12875;BMP180;6505;51.114;13.128;2023-06-05T07:37:30;99973.00;;;26.50
12875;BMP180;6505;51.114;13.128;2023-06-05T07:39:58;99967.00;;;26.60
12875;BMP180;6505;51.114;13.128;2023-06-05T07:42:28;99977.00;;;26.70
12875;BMP180;6505;51.114;13.128;2023-06-05T07:44:56;99981.00;;;26.80
12875;BMP180;6505;51.114;13.128;2023-06-05T07:47:24;99981.00;;;27.00
12875;BMP180;6505;51.114;13.128;2023-06-05T07:49:57;99980.00;;;27.10
12875;BMP180;6505;51.114;13.128;2023-06-05T07:52:27;99976.00;;;27.30
12875;BMP180;6505;51.114;13.128;2023-06-05T07:54:55;99974.00;;;27.40
12875;BMP180;6505;51.114;13.128;2023-06-05T07:57:23;99976.00;;;27.50
12875;BMP180;6505;51.114;13.128;2023-06-05T07:59:53;99976.00;;;27.60
12875;BMP180;6505;51.114;13.128;2023-06-05T08:02:22;99974.00;;;27.80
12875;BMP180;6505;51.114;13.128;2023-06-05T08:04:51;99974.00;;;27.90
12875;BMP180;6505;51.114;13.128;2023-06-05T08:07:19;99982.00;;;28.00
12875;BMP180;6505;51.114;13.128;2023-06-05T08:09:47;99978.00;;;28.20
12875;BMP180;6505;51.114;13.128;2023-06-05T08:12:15;99980.00;;;28.30
12875;BMP180;6505;51.114;13.128;2023-06-05T08:14:43;99985.00;;;28.40
12875;BMP180;6505;51.114;13.128;2023-06-05T08:17:12;99979.00;;;28.60
12875;BMP180;6505;51.114;13.128;2023-06-05T08:19:40;99974.00;;;28.80
12875;BMP180;6505;51.114;13.128;2023-06-05T08:22:08;99976.00;;;28.90
12875;BMP180;6505;51.114;13.128;2023-06-05T08:24:36;99978.00;;;29.00
12875;BMP180;6505;51.114;13.128;2023-06-05T08:27:04;99980.00;;;29.10
12875;BMP180;6505;51.114;13.128;2023-06-05T08:29:34;99976.00;;;29.20
12875;BMP180;6505;51.114;13.128;2023-06-05T08:32:04;99971.00;;;29.20
12875;BMP180;6505;51.114;13.128;2023-06-05T08:34:34;99973.00;;;29.30
12875;BMP180;6505;51.114;13.128;2023-06-05T08:37:03;99963.00;;;29.40
12875;BMP180;6505;51.114;13.128;2023-06-05T08:39:31;99963.00;;;29.40
12875;BMP180;6505;51.114;13.128;2023-06-05T08:42:01;99970.00;;;29.40
12875;BMP180;6505;51.114;13.128;2023-06-05T08:44:30;99969.00;;;29.50
12875;BMP180;6505;51.114;13.128;2023-06-05T08:47:01;99965.00;;;29.50
12875;BMP180;6505;51.114;13.128;2023-06-05T08:49:30;99969.00;;;29.50
12875;BMP180;6505;51.114;13.128;2023-06-05T08:52:06;99967.00;;;29.50
12875;BMP180;6505;51.114;13.128;2023-06-05T08:54:38;99966.00;;;29.50
12875;BMP180;6505;51.114;13.128;2023-06-05T08:57:07;99974.00;;;29.60
12875;BMP180;6505;51.114;13.128;2023-06-05T08:59:36;99971.00;;;29.50
12875;BMP180;6505;51.114;13.128;2023-06-05T09:02:04;99972.00;;;29.50
12875;BMP180;6505;51.114;13.128;2023-06-05T09:04:32;99964.00;;;29.50
12875;BMP180;6505;51.114;13.128;2023-06-05T09:07:00;99965.00;;;29.50
12875;BMP180;6505;51.114;13.128;2023-06-05T09:09:31;99957.00;;;29.40
12875;BMP180;6505;51.114;13.128;2023-06-05T09:12:03;99968.00;;;29.40
12875;BMP180;6505;51.114;13.128;2023-06-05T09:14:33;99946.00;;;29.40
12875;BMP180;6505;51.114;13.128;2023-06-05T09:17:03;99953.00;;;29.30
12875;BMP180;6505;51.114;13.128;2023-06-05T09:19:37;99954.00;;;29.30
12875;BMP180;6505;51.114;13.128;2023-06-05T09:22:07;99960.00;;;29.20
12875;BMP180;6505;51.114;13.128;2023-06-05T09:24:37;99960.00;;;29.20
12875;BMP180;6505;51.114;13.128;2023-06-05T09:27:09;99959.00;;;29.10
12875;BMP180;6505;51.114;13.128;2023-06-05T09:29:40;99954.00;;;29.00
12875;BMP180;6505;51.114;13.128;2023-06-05T09:32:18;99948.00;;;29.00
12875;BMP180;6505;51.114;13.128;2023-06-05T09:34:55;99947.00;;;28.90
12875;BMP180;6505;51.114;13.128;2023-06-05T09:37:33;99945.00;;;28.80
12875;BMP180;6505;51.114;13.128;2023-06-05T09:40:05;99949.00;;;28.80
12875;BMP180;6505;51.114;13.128;2023-06-05T09:42:35;99948.00;;;28.70
12875;BMP180;6505;51.114;13.128;2023-06-05T09:45:04;99921.00;;;28.70
12875;BMP180;6505;51.114;13.128;2023-06-05T09:47:32;99937.00;;;28.60
12875;BMP180;6505;51.114;13.128;2023-06-05T09:50:22;99928.00;;;28.50
12875;BMP180;6505;51.114;13.128;2023-06-05T09:52:54;99939.00;;;28.40
12875;BMP180;6505;51.114;13.128;2023-06-05T09:55:25;99935.00;;;28.40
12875;BMP180;6505;51.114;13.128;2023-06-05T09:57:57;99922.00;;;28.30
12875;BMP180;6505;51.114;13.128;2023-06-05T10:00:27;99917.00;;;28.30
12875;BMP180;6505;51.114;13.128;2023-06-05T10:02:57;99928.00;;;28.30
12875;BMP180;6505;51.114;13.128;2023-06-05T10:05:26;99915.00;;;28.20
12875;BMP180;6505;51.114;13.128;2023-06-05T10:07:57;99919.00;;;28.20
12875;BMP180;6505;51.114;13.128;2023-06-05T10:10:27;99944.00;;;28.10
12875;BMP180;6505;51.114;13.128;2023-06-05T10:12:57;99926.00;;;28.10
12875;BMP180;6505;51.114;13.128;2023-06-05T10:15:27;99917.00;;;28.10
12875;BMP180;6505;51.114;13.128;2023-06-05T10:17:56;99912.00;;;28.00
12875;BMP180;6505;51.114;13.128;2023-06-05T10:20:25;99913.00;;;28.00
12875;BMP180;6505;51.114;13.128;2023-06-05T10:22:55;99912.00;;;28.00
12875;BMP180;6505;51.114;13.128;2023-06-05T10:25:25;99917.00;;;27.90
12875;BMP180;6505;51.114;13.128;2023-06-05T10:28:18;99903.00;;;27.90
12875;BMP180;6505;51.114;13.128;2023-06-05T10:31:19;99902.00;;;27.80
12875;BMP180;6505;51.114;13.128;2023-06-05T10:39:59;99902.00;;;27.80
12875;BMP180;6505;51.114;13.128;2023-06-05T10:42:29;99902.00;;;27.80
12875;BMP180;6505;51.114;13.128;2023-06-05T10:44:57;99883.00;;;27.80
12875;BMP180;6505;51.114;13.128;2023-06-05T10:47:51;99898.00;;;27.70
12875;BMP180;6505;51.114;13.128;2023-06-05T10:50:29;99902.00;;;27.70
12875;BMP180;6505;51.114;13.128;2023-06-05T10:52:58;99894.00;;;27.70
12875;BMP180;6505;51.114;13.128;2023-06-05T10:55:40;99884.00;;;27.70
12875;BMP180;6505;51.114;13.128;2023-06-05T10:58:12;99884.00;;;27.70
12875;BMP180;6505;51.114;13.128;2023-06-05T11:01:17;99901.00;;;27.60
12875;BMP180;6505;51.114;13.128;2023-06-05T11:03:57;99896.00;;;27.60
12875;BMP180;6505;51.114;13.128;2023-06-05T11:06:26;99884.00;;;27.60
12875;BMP180;6505;51.114;13.128;2023-06-05T11:09:12;99887.00;;;27.50
12875;BMP180;6505;51.114;13.128;2023-06-05T11:11:58;99894.00;;;27.50
12875;BMP180;6505;51.114;13.128;2023-06-05T11:14:44;99889.00;;;27.50
12875;BMP180;6505;51.114;13.128;2023-06-05T11:17:30;99886.00;;;27.40
12875;BMP180;6505;51.114;13.128;2023-06-05T11:19:58;99891.00;;;27.40
12875;BMP180;6505;51.114;13.128;2023-06-05T11:22:27;99886.00;;;27.40
12875;BMP180;6505;51.114;13.128;2023-06-05T11:25:26;99885.00;;;27.40
12875;BMP180;6505;51.114;13.128;2023-06-05T11:27:56;99878.00;;;27.40
12875;BMP180;6505;51.114;13.128;2023-06-05T11:30:29;99877.00;;;27.40
12875;BMP180;6505;51.114;13.128;2023-06-05T11:33:16;99883.00;;;27.40
12875;BMP180;6505;51.114;13.128;2023-06-05T11:35:48;99869.00;;;27.40
12875;BMP180;6505;51.114;13.128;2023-06-05T11:38:18;99870.00;;;27.30
12875;BMP180;6505;51.114;13.128;2023-06-05T11:40:50;99870.00;;;27.30
12875;BMP180;6505;51.114;13.128;2023-06-05T11:43:18;99876.00;;;27.30
12875;BMP180;6505;51.114;13.128;2023-06-05T11:45:53;99866.00;;;27.30
12875;BMP180;6505;51.114;13.128;2023-06-05T11:48:22;99864.00;;;27.30
12875;BMP180;6505;51.114;13.128;2023-06-05T11:50:54;99853.00;;;27.30
12875;BMP180;6505;51.114;13.128;2023-06-05T11:53:24;99858.00;;;27.30
12875;BMP180;6505;51.114;13.128;2023-06-05T11:55:53;99867.00;;;27.30
12875;BMP180;6505;51.114;13.128;2023-06-05T11:58:37;99864.00;;;27.30
12875;BMP180;6505;51.114;13.128;2023-06-05T12:01:11;99859.00;;;27.30
12875;BMP180;6505;51.114;13.128;2023-06-05T12:03:42;99853.00;;;27.30
12875;BMP180;6505;51.114;13.128;2023-06-05T12:06:10;99860.00;;;27.30
12875;BMP180;6505;51.114;13.128;2023-06-05T12:08:41;99848.00;;;27.30
12875;BMP180;6505;51.114;13.128;2023-06-05T12:11:24;99856.00;;;27.30
12875;BMP180;6505;51.114;13.128;2023-06-05T12:13:53;99847.00;;;27.30
12875;BMP180;6505;51.114;13.128;2023-06-05T12:16:32;99848.00;;;27.20
12875;BMP180;6505;51.114;13.128;2023-06-05T12:19:03;99837.00;;;27.30
12875;BMP180;6505;51.114;13.128;2023-06-05T12:21:44;99834.00;;;27.20
12875;BMP180;6505;51.114;13.128;2023-06-05T12:24:12;99829.00;;;27.30
12875;BMP180;6505;51.114;13.128;2023-06-05T12:26:51;99840.00;;;27.20
12875;BMP180;6505;51.114;13.128;2023-06-05T12:29:23;99847.00;;;27.20
12875;BMP180;6505;51.114;13.128;2023-06-05T12:31:53;99827.00;;;27.20
12875;BMP180;6505;51.114;13.128;2023-06-05T12:34:44;99831.00;;;27.10
12875;BMP180;6505;51.114;13.128;2023-06-05T12:37:30;99823.00;;;27.20
12875;BMP180;6505;51.114;13.128;2023-06-05T12:40:02;99813.00;;;27.20
12875;BMP180;6505;51.114;13.128;2023-06-05T12:42:38;99833.00;;;27.10
12875;BMP180;6505;51.114;13.128;2023-06-05T12:45:08;99824.00;;;27.20
12875;BMP180;6505;51.114;13.128;2023-06-05T12:47:38;99818.00;;;27.10
12875;BMP180;6505;51.114;13.128;2023-06-05T12:50:08;99809.00;;;27.10
12875;BMP180;6505;51.114;13.128;2023-06-05T12:52:39;99806.00;;;27.10
12875;BMP180;6505;51.114;13.128;2023-06-05T12:55:08;99805.00;;;27.10
12875;BMP180;6505;51.114;13.128;2023-06-05T12:57:37;99810.00;;;27.10
12875;BMP180;6505;51.114;13.128;2023-06-05T13:00:07;99790.00;;;27.10
12875;BMP180;6505;51.114;13.128;2023-06-05T13:02:43;99797.00;;;27.10
12875;BMP180;6505;51.114;13.128;2023-06-05T13:05:13;99794.00;;;27.10
12875;BMP180;6505;51.114;13.128;2023-06-05T13:07:41;99792.00;;;27.10
12875;BMP180;6505;51.114;13.128;2023-06-05T13:10:09;99791.00;;;27.10
12875;BMP180;6505;51.114;13.128;2023-06-05T13:12:38;99791.00;;;27.10
12875;BMP180;6505;51.114;13.128;2023-06-05T13:15:08;99790.00;;;27.10
12875;BMP180;6505;51.114;13.128;2023-06-05T13:17:36;99786.00;;;27.10
12875;BMP180;6505;51.114;13.128;2023-06-05T13:20:07;99779.00;;;27.10
12875;BMP180;6505;51.114;13.128;2023-06-05T13:22:37;99780.00;;;27.10
12875;BMP180;6505;51.114;13.128;2023-06-05T13:25:07;99792.00;;;27.10
12875;BMP180;6505;51.114;13.128;2023-06-05T13:27:36;99785.00;;;27.10
12875;BMP180;6505;51.114;13.128;2023-06-05T13:30:05;99773.00;;;27.10
12875;BMP180;6505;51.114;13.128;2023-06-05T13:32:35;99772.00;;;27.10
12875;BMP180;6505;51.114;13.128;2023-06-05T13:35:06;99775.00;;;27.10
12875;BMP180;6505;51.114;13.128;2023-06-05T13:37:36;99781.00;;;27.10
12875;BMP180;6505;51.114;13.128;2023-06-05T13:40:05;99775.00;;;27.10
12875;BMP180;6505;51.114;13.128;2023-06-05T13:42:36;99780.00;;;27.10
12875;BMP180;6505;51.114;13.128;2023-06-05T13:45:06;99784.00;;;27.10
12875;BMP180;6505;51.114;13.128;2023-06-05T13:47:35;99769.00;;;27.10
12875;BMP180;6505;51.114;13.128;2023-06-05T13:50:06;99774.00;;;27.10
12875;BMP180;6505;51.114;13.128;2023-06-05T13:52:34;99777.00;;;27.10
12875;BMP180;6505;51.114;13.128;2023-06-05T13:55:04;99769.00;;;27.10
12875;BMP180;6505;51.114;13.128;2023-06-05T13:57:33;99769.00;;;27.10
12875;BMP180;6505;51.114;13.128;2023-06-05T14:00:02;99766.00;;;27.10
12875;BMP180;6505;51.114;13.128;2023-06-05T14:02:31;99769.00;;;27.10
12875;BMP180;6505;51.114;13.128;2023-06-05T14:04:59;99764.00;;;27.20
12875;BMP180;6505;51.114;13.128;2023-06-05T14:07:29;99770.00;;;27.20
12875;BMP180;6505;51.114;13.128;2023-06-05T14:10:15;99758.00;;;27.20
12875;BMP180;6505;51.114;13.128;2023-06-05T14:12:43;99763.00;;;27.20
12875;BMP180;6505;51.114;13.128;2023-06-05T14:15:11;99763.00;;;27.20
12875;BMP180;6505;51.114;13.128;2023-06-05T14:17:39;99761.00;;;27.20
12875;BMP180;6505;51.114;13.128;2023-06-05T14:20:07;99764.00;;;27.20
12875;BMP180;6505;51.114;13.128;2023-06-05T14:22:37;99753.00;;;27.20
12875;BMP180;6505;51.114;13.128;2023-06-05T14:25:07;99761.00;;;27.20
12875;BMP180;6505;51.114;13.128;2023-06-05T14:27:35;99758.00;;;27.20
12875;BMP180;6505;51.114;13.128;2023-06-05T14:30:04;99762.00;;;27.20
12875;BMP180;6505;51.114;13.128;2023-06-05T14:32:34;99760.00;;;27.30
12875;BMP180;6505;51.114;13.128;2023-06-05T14:35:02;99751.00;;;27.30